createdAt,value
2017-10-08T00:00:19.507Z,2.40
2017-10-08T00:02:48.393Z,2.50
2017-10-08T00:05:17.258Z,2.43
2017-10-08T00:07:45.400Z,2.60
2017-10-08T00:10:13.499Z,2.67
2017-10-08T00:12:41.597Z,3.30
2017-10-08T00:15:10.504Z,2.50
2017-10-08T00:17:39.362Z,2.70
2017-10-08T00:20:07.497Z,2.40
2017-10-08T00:22:35.614Z,2.70
2017-10-08T00:25:03.750Z,2.37
2017-10-08T00:27:31.854Z,2.97
2017-10-08T00:30:00.737Z,3.17
2017-10-08T00:32:29.737Z,3.10
2017-10-08T00:34:57.902Z,3.40
2017-10-08T00:37:27.339Z,3.27
2017-10-08T00:39:56.238Z,3.50
2017-10-08T00:42:24.337Z,4.20
2017-10-08T00:44:52.449Z,3.53
2017-10-08T00:47:20.546Z,3.37
2017-10-08T00:49:49.440Z,3.23
2017-10-08T00:52:18.302Z,3.70
2017-10-08T00:54:46.526Z,3.50
2017-10-08T00:57:14.634Z,2.90
2017-10-08T00:59:44.366Z,2.97
2017-10-08T01:02:12.498Z,3.30
2017-10-08T01:04:40.626Z,3.43
2017-10-08T01:07:09.501Z,3.30
2017-10-08T01:09:37.691Z,3.30
2017-10-08T01:12:06.564Z,3.60
2017-10-08T01:14:34.689Z,4.43
2017-10-08T01:17:03.116Z,3.60
2017-10-08T01:19:32.409Z,3.50
2017-10-08T01:22:00.939Z,4.23
2017-10-08T01:24:31.231Z,4.00
2017-10-08T01:27:00.124Z,3.30
2017-10-08T01:29:28.991Z,3.80
2017-10-08T01:31:57.111Z,3.87
2017-10-08T01:34:25.215Z,4.03
2017-10-08T01:36:54.615Z,3.90
2017-10-08T01:39:22.727Z,3.97
2017-10-08T01:41:50.864Z,4.00
2017-10-08T01:44:20.075Z,3.60
2017-10-08T01:46:49.501Z,3.87
2017-10-08T01:49:17.619Z,3.20
2017-10-08T01:51:45.751Z,3.63
2017-10-08T01:54:13.867Z,3.43
2017-10-08T01:56:41.983Z,3.83
2017-10-08T01:59:10.091Z,4.10
2017-10-08T02:01:38.983Z,3.80
2017-10-08T02:04:07.089Z,3.93
2017-10-08T02:06:35.226Z,3.70
2017-10-08T02:09:04.093Z,3.80
2017-10-08T02:11:32.203Z,3.80
2017-10-08T02:14:00.299Z,3.43
2017-10-08T02:16:28.434Z,4.33
2017-10-08T02:18:56.543Z,4.00
2017-10-08T02:21:24.658Z,3.80
2017-10-08T02:23:53.938Z,3.60
2017-10-08T02:26:22.043Z,4.37
2017-10-08T02:28:50.950Z,3.73
2017-10-08T02:31:20.416Z,3.93
2017-10-08T02:33:48.576Z,4.03
2017-10-08T02:36:16.670Z,3.73
2017-10-08T02:38:44.794Z,4.50
2017-10-08T02:41:12.893Z,4.30
2017-10-08T02:43:41.026Z,3.63
2017-10-08T02:46:09.149Z,3.70
2017-10-08T02:48:37.295Z,4.20
2017-10-08T02:51:05.399Z,4.70
2017-10-08T02:53:33.522Z,4.37
2017-10-08T02:56:02.481Z,4.13
2017-10-08T02:58:31.375Z,4.37
2017-10-08T03:01:00.267Z,3.50
2017-10-08T03:03:29.126Z,4.00
2017-10-08T03:05:57.253Z,4.20
2017-10-08T03:08:25.368Z,3.93
2017-10-08T03:10:53.497Z,4.80
2017-10-08T03:13:21.610Z,3.20
2017-10-08T03:15:49.734Z,4.10
2017-10-08T03:18:17.838Z,4.00
2017-10-08T03:20:45.962Z,3.80
2017-10-08T03:23:14.829Z,3.73
2017-10-08T03:25:42.955Z,4.00
2017-10-08T03:28:11.050Z,3.20
2017-10-08T03:30:39.963Z,3.23
2017-10-08T03:33:08.074Z,3.80
2017-10-08T03:35:36.964Z,3.17
2017-10-08T03:38:05.071Z,3.37
2017-10-08T03:40:33.202Z,4.60
2017-10-08T03:43:03.473Z,3.90
2017-10-08T03:45:31.604Z,3.63
2017-10-08T03:48:00.479Z,3.60
2017-10-08T03:50:28.605Z,3.60
2017-10-08T03:52:56.698Z,3.40
2017-10-08T03:55:24.863Z,3.50
2017-10-08T03:57:52.973Z,3.37
2017-10-08T04:00:21.844Z,3.60
2017-10-08T04:02:49.984Z,3.73
2017-10-08T04:05:18.111Z,3.23
2017-10-08T04:07:46.998Z,4.20
2017-10-08T04:10:15.855Z,2.93
2017-10-08T04:12:43.989Z,3.23
2017-10-08T04:15:12.100Z,2.87
2017-10-08T04:17:40.220Z,2.30
2017-10-08T04:20:08.328Z,3.27
2017-10-08T04:22:36.475Z,2.50
2017-10-08T04:25:04.661Z,2.50
2017-10-08T04:27:32.796Z,2.60
2017-10-08T04:30:00.920Z,2.10
2017-10-08T04:32:29.062Z,1.90
2017-10-08T04:34:57.948Z,1.70
2017-10-08T04:37:26.158Z,1.83
2017-10-08T04:39:54.270Z,1.73
2017-10-08T04:42:22.953Z,1.60
2017-10-08T04:44:51.042Z,2.17
2017-10-08T04:47:19.947Z,1.93
2017-10-08T04:49:48.056Z,1.87
2017-10-08T04:52:16.692Z,2.80
2017-10-08T04:54:45.568Z,3.10
2017-10-08T04:57:13.675Z,2.47
2017-10-08T04:59:41.802Z,2.50
2017-10-08T05:02:10.386Z,2.40
2017-10-08T05:04:38.571Z,2.40
2017-10-08T05:07:06.737Z,2.70
2017-10-08T05:09:34.895Z,2.83
2017-10-08T05:12:03.292Z,3.17
2017-10-08T05:14:31.499Z,3.40
2017-10-08T05:16:59.598Z,3.10
2017-10-08T05:19:27.758Z,2.80
2017-10-08T05:21:55.962Z,2.77
2017-10-08T05:24:24.078Z,2.57
2017-10-08T05:26:52.956Z,2.40
2017-10-08T05:29:21.119Z,2.70
2017-10-08T05:31:49.215Z,2.50
2017-10-08T05:34:18.114Z,2.63
2017-10-08T05:36:46.972Z,2.53
2017-10-08T05:39:15.132Z,2.40
2017-10-08T05:41:43.235Z,2.40
2017-10-08T05:44:11.412Z,2.10
2017-10-08T05:46:39.503Z,2.50
2017-10-08T05:49:07.622Z,2.90
2017-10-08T05:51:35.729Z,2.50
2017-10-08T05:54:04.478Z,2.63
2017-10-08T05:56:32.588Z,2.60
2017-10-08T05:59:01.592Z,3.63
2017-10-08T06:01:30.454Z,2.47
2017-10-08T06:03:58.560Z,2.80
2017-10-08T06:06:26.699Z,2.40
2017-10-08T06:08:54.791Z,2.80
2017-10-08T06:11:22.906Z,2.33
2017-10-08T06:13:51.027Z,2.50
2017-10-08T06:16:19.146Z,2.83
2017-10-08T06:18:47.262Z,2.20
2017-10-08T06:21:15.843Z,3.10
2017-10-08T06:23:44.702Z,2.53
2017-10-08T06:26:12.857Z,2.30
2017-10-08T06:28:40.960Z,2.33
2017-10-08T06:31:09.079Z,2.20
2017-10-08T06:33:37.959Z,2.90
2017-10-08T06:36:06.104Z,1.93
2017-10-08T06:38:34.189Z,2.10
2017-10-08T06:41:02.314Z,2.20
2017-10-08T06:43:30.408Z,1.90
2017-10-08T06:45:58.563Z,2.20
2017-10-08T06:48:26.662Z,1.93
2017-10-08T06:50:54.795Z,4.30
2017-10-08T06:53:24.330Z,2.23
2017-10-08T06:55:52.431Z,2.63
2017-10-08T06:58:20.607Z,2.33
2017-10-08T07:00:48.707Z,2.20
2017-10-08T07:03:17.585Z,2.40
2017-10-08T07:05:47.970Z,1.77
2017-10-08T07:08:16.088Z,2.60
2017-10-08T07:10:44.971Z,2.00
2017-10-08T07:13:13.109Z,1.63
2017-10-08T07:15:41.220Z,1.70
2017-10-08T07:18:10.128Z,2.20
2017-10-08T07:20:38.985Z,1.80
2017-10-08T07:23:07.389Z,2.00
2017-10-08T07:25:36.254Z,1.70
2017-10-08T07:28:04.412Z,1.70
2017-10-08T07:30:32.536Z,1.87
2017-10-08T07:33:00.672Z,1.60
2017-10-08T07:35:28.797Z,1.30
2017-10-08T07:37:56.952Z,1.67
2017-10-08T07:40:25.810Z,1.50
2017-10-08T07:42:53.954Z,1.60
2017-10-08T07:45:22.057Z,1.90
2017-10-08T07:47:50.199Z,2.03
2017-10-08T07:50:18.331Z,2.10
2017-10-08T07:52:46.459Z,2.00
2017-10-08T07:55:14.576Z,1.80
2017-10-08T07:57:43.460Z,1.50
2017-10-08T08:00:12.363Z,1.50
2017-10-08T08:02:41.221Z,1.80
2017-10-08T08:05:09.354Z,2.10
2017-10-08T08:07:37.636Z,1.90
2017-10-08T08:10:05.951Z,1.70
2017-10-08T08:12:34.792Z,2.40
2017-10-08T08:15:02.931Z,2.13
2017-10-08T08:17:31.819Z,2.70
2017-10-08T08:20:00.711Z,3.23
2017-10-08T08:22:29.596Z,2.60
2017-10-08T08:24:58.496Z,2.50
2017-10-08T08:27:27.401Z,2.40
2017-10-08T08:29:55.533Z,2.28
2017-10-08T08:32:23.635Z,2.30
2017-10-08T08:34:52.037Z,1.90
2017-10-08T08:37:20.178Z,2.63
2017-10-08T08:39:49.091Z,1.80
2017-10-08T08:42:17.951Z,1.90
2017-10-08T08:44:46.063Z,1.77
2017-10-08T08:47:14.191Z,2.20
2017-10-08T08:49:42.390Z,3.20
2017-10-08T08:52:10.555Z,1.57
2017-10-08T08:54:39.444Z,1.80
2017-10-08T08:57:08.342Z,2.23
2017-10-08T08:59:37.206Z,1.63
2017-10-08T09:02:05.322Z,2.10
2017-10-08T09:04:33.451Z,2.00
2017-10-08T09:07:02.261Z,1.63
2017-10-08T09:09:31.147Z,2.30
2017-10-08T09:12:00.148Z,2.10
2017-10-08T09:14:28.434Z,2.90
2017-10-08T09:16:58.762Z,2.37
2017-10-08T09:19:26.915Z,2.63
2017-10-08T09:21:55.809Z,2.00
2017-10-08T09:24:24.678Z,2.20
2017-10-08T09:26:52.804Z,2.20
2017-10-08T09:29:20.914Z,2.10
2017-10-08T09:31:49.046Z,2.07
2017-10-08T09:34:17.626Z,2.17
2017-10-08T09:36:45.737Z,2.00
2017-10-08T09:39:13.854Z,2.00
2017-10-08T09:41:42.737Z,2.10
2017-10-08T09:44:11.616Z,2.30
2017-10-08T09:46:39.710Z,2.23
2017-10-08T09:49:08.622Z,2.50
2017-10-08T09:51:36.758Z,2.87
2017-10-08T09:54:04.900Z,2.90
2017-10-08T09:56:33.019Z,2.90
2017-10-08T09:59:02.439Z,2.17
2017-10-08T10:01:30.571Z,2.30
2017-10-08T10:03:58.706Z,2.20
2017-10-08T10:06:26.802Z,2.70
2017-10-08T10:08:54.927Z,3.07
2017-10-08T10:11:23.804Z,2.67
2017-10-08T10:13:52.697Z,2.27
2017-10-08T10:16:21.571Z,2.30
2017-10-08T10:18:50.934Z,2.40
2017-10-08T10:21:19.053Z,2.60
2017-10-08T10:23:47.315Z,2.70
2017-10-08T10:26:15.432Z,2.47
2017-10-08T10:28:45.540Z,2.87
2017-10-08T10:31:13.645Z,2.50
2017-10-08T10:33:41.798Z,3.30
2017-10-08T10:36:10.197Z,2.40
2017-10-08T10:38:38.620Z,2.53
2017-10-08T10:41:07.319Z,2.70
2017-10-08T10:43:36.408Z,2.30
2017-10-08T10:46:05.283Z,2.60
2017-10-08T10:48:35.748Z,2.60
2017-10-08T10:51:08.268Z,2.80
2017-10-08T10:53:36.993Z,2.83
2017-10-08T10:56:05.875Z,2.40
2017-10-08T10:58:33.978Z,3.00
2017-10-08T11:01:02.563Z,2.60
2017-10-08T11:03:31.432Z,2.47
2017-10-08T11:06:00.035Z,2.80
2017-10-08T11:08:28.172Z,2.77
2017-10-08T11:10:57.082Z,2.43
2017-10-08T11:13:26.966Z,3.27
2017-10-08T11:15:56.360Z,2.33
2017-10-08T11:18:24.461Z,2.30
2017-10-08T11:20:52.686Z,2.83
2017-10-08T11:23:21.637Z,2.50
2017-10-08T11:25:50.541Z,2.97
2017-10-08T11:28:19.420Z,2.63
2017-10-08T11:30:48.305Z,2.43
2017-10-08T11:33:17.284Z,3.10
2017-10-08T11:35:45.410Z,2.83
2017-10-08T11:38:13.510Z,2.87
2017-10-08T11:40:41.715Z,3.50
2017-10-08T11:43:09.819Z,2.97
2017-10-08T11:45:37.949Z,3.23
2017-10-08T11:48:06.093Z,2.80
2017-10-08T11:50:34.228Z,2.80
2017-10-08T11:53:02.802Z,2.63
2017-10-08T11:55:30.943Z,2.80
2017-10-08T11:57:59.063Z,2.97
2017-10-08T12:00:27.189Z,3.00
2017-10-08T12:02:55.303Z,2.73
2017-10-08T12:05:23.459Z,3.97
2017-10-08T12:07:51.607Z,3.10
2017-10-08T12:10:19.738Z,2.83
2017-10-08T12:12:47.844Z,2.83
2017-10-08T12:15:16.140Z,3.10
2017-10-08T12:17:44.278Z,3.33
2017-10-08T12:20:12.410Z,2.60
2017-10-08T12:22:41.275Z,2.70
2017-10-08T12:25:09.389Z,2.63
2017-10-08T12:27:37.481Z,2.23
2017-10-08T12:30:05.607Z,2.50
2017-10-08T12:32:34.481Z,2.57
2017-10-08T12:35:03.095Z,2.60
2017-10-08T12:37:31.271Z,2.27
2017-10-08T12:40:00.153Z,2.43
2017-10-08T12:42:29.025Z,2.47
2017-10-08T12:44:57.153Z,2.60
2017-10-08T12:47:25.277Z,2.33
2017-10-08T12:49:54.161Z,2.47
2017-10-08T12:52:22.299Z,2.53
2017-10-08T12:54:50.394Z,2.50
2017-10-08T12:57:18.522Z,2.83
2017-10-08T12:59:46.622Z,2.70
2017-10-08T13:02:14.736Z,2.40
2017-10-08T13:04:43.613Z,2.50
2017-10-08T13:07:11.726Z,3.40
2017-10-08T13:09:39.835Z,2.20
2017-10-08T13:12:07.971Z,2.60
2017-10-08T13:14:36.084Z,3.97
2017-10-08T13:17:04.702Z,2.30
2017-10-08T13:19:33.555Z,2.60
2017-10-08T13:22:01.664Z,2.90
2017-10-08T13:24:30.562Z,2.73
2017-10-08T13:27:00.676Z,3.23
2017-10-08T13:29:29.575Z,2.90
2017-10-08T13:31:58.434Z,2.30
2017-10-08T13:34:26.574Z,2.10
2017-10-08T13:36:54.671Z,2.60
2017-10-08T13:39:22.800Z,2.63
2017-10-08T13:41:50.906Z,2.30
2017-10-08T13:44:19.039Z,2.90
2017-10-08T13:46:47.153Z,3.00
2017-10-08T13:49:15.284Z,2.30
2017-10-08T13:51:43.406Z,2.40
2017-10-08T13:54:11.783Z,2.73
2017-10-08T13:56:39.990Z,2.30
2017-10-08T13:59:10.209Z,3.10
2017-10-08T14:01:39.090Z,3.03
2017-10-08T14:04:08.197Z,2.63
2017-10-08T14:06:37.059Z,2.73
2017-10-08T14:09:05.791Z,3.03
2017-10-08T14:11:33.995Z,2.40
2017-10-08T14:14:02.167Z,2.80
2017-10-08T14:16:31.062Z,2.40
2017-10-08T14:18:59.193Z,3.20
2017-10-08T14:21:28.058Z,2.73
2017-10-08T14:23:56.310Z,2.53
2017-10-08T14:26:24.813Z,2.70
2017-10-08T14:28:54.139Z,2.90
2017-10-08T14:31:23.046Z,2.50
2017-10-08T14:33:51.154Z,2.83
2017-10-08T14:36:19.278Z,3.40
2017-10-08T14:38:48.142Z,2.53
2017-10-08T14:41:16.270Z,3.00
2017-10-08T14:43:44.389Z,3.10
2017-10-08T14:46:13.047Z,2.53
2017-10-08T14:48:42.245Z,3.10
2017-10-08T14:51:10.370Z,2.70
2017-10-08T14:53:39.238Z,2.73
2017-10-08T14:56:06.842Z,2.83
2017-10-08T14:58:34.950Z,3.57
2017-10-08T15:01:03.316Z,3.00
2017-10-08T15:03:31.745Z,3.27
2017-10-08T15:06:00.647Z,4.33
2017-10-08T15:08:30.719Z,3.80
2017-10-08T15:10:58.858Z,3.70
2017-10-08T15:13:26.958Z,2.77
2017-10-08T15:15:55.097Z,3.60
2017-10-08T15:18:23.213Z,3.13
2017-10-08T15:20:51.334Z,3.10
2017-10-08T15:23:19.892Z,2.73
2017-10-08T15:25:48.022Z,3.33
2017-10-08T15:28:21.669Z,2.87
2017-10-08T15:30:56.325Z,3.00
2017-10-08T15:33:30.558Z,2.67
2017-10-08T15:36:04.388Z,3.10
2017-10-08T15:38:38.130Z,2.80
2017-10-08T15:41:07.058Z,2.80
2017-10-08T15:43:35.157Z,3.00
2017-10-08T15:46:04.798Z,2.40
2017-10-08T15:48:32.992Z,2.40
2017-10-08T15:51:01.895Z,2.67
2017-10-08T15:53:31.044Z,5.80
2017-10-08T15:56:00.931Z,3.30
2017-10-08T15:58:29.706Z,2.80
2017-10-08T16:00:59.190Z,2.97
2017-10-08T16:03:27.402Z,3.03
2017-10-08T16:05:55.576Z,2.73
2017-10-08T16:08:23.729Z,2.73
2017-10-08T16:10:52.080Z,2.40
2017-10-08T16:13:21.367Z,2.60
2017-10-08T16:15:50.279Z,2.50
2017-10-08T16:18:18.902Z,2.70
2017-10-08T16:20:47.076Z,3.63
2017-10-08T16:31:17.980Z,2.77
2017-10-08T16:33:47.551Z,2.30
2017-10-08T16:36:16.771Z,2.20
2017-10-08T16:38:46.879Z,2.53
2017-10-08T16:41:19.028Z,2.10
2017-10-08T16:43:48.074Z,1.87
2017-10-08T16:46:17.958Z,2.63
2017-10-08T16:48:48.123Z,2.60
2017-10-08T16:51:16.252Z,2.43
2017-10-08T16:53:45.155Z,3.10
2017-10-08T16:56:13.282Z,2.00
2017-10-08T16:58:41.420Z,2.10
2017-10-08T17:01:12.153Z,2.87
2017-10-08T17:03:40.419Z,2.37
2017-10-08T17:06:11.526Z,2.20
2017-10-08T17:08:39.660Z,2.83
2017-10-08T17:11:08.192Z,2.53
2017-10-08T17:13:38.521Z,2.40
2017-10-08T17:16:07.417Z,2.17
2017-10-08T17:18:36.526Z,2.50
2017-10-08T17:21:06.822Z,2.07
2017-10-08T17:23:38.790Z,2.30
2017-10-08T17:26:11.266Z,2.37
2017-10-08T17:28:41.403Z,2.37
2017-10-08T17:31:11.585Z,2.67
2017-10-08T17:33:39.714Z,2.43
2017-10-08T17:36:11.939Z,2.07
2017-10-08T17:38:43.366Z,2.60
2017-10-08T17:41:12.803Z,2.50
2017-10-08T17:43:42.718Z,2.10
2017-10-08T17:46:12.077Z,2.30
2017-10-08T17:48:41.682Z,2.53
2017-10-08T17:51:12.006Z,2.50
2017-10-08T17:53:43.114Z,3.10
2017-10-08T17:56:11.914Z,2.57
2017-10-08T17:58:40.696Z,2.70
2017-10-08T18:01:10.893Z,2.57
2017-10-08T18:03:40.677Z,2.77
2017-10-08T18:06:09.296Z,2.67
2017-10-08T18:08:38.403Z,2.60
2017-10-08T18:11:09.343Z,4.50
2017-10-08T18:13:37.482Z,7.97
2017-10-08T18:16:06.185Z,4.80
2017-10-08T18:18:35.074Z,3.27
2017-10-08T18:21:04.716Z,2.50
2017-10-08T18:23:32.821Z,2.83
2017-10-08T18:26:02.666Z,2.10
2017-10-08T18:28:31.536Z,2.30
2017-10-08T18:31:00.311Z,2.97
2017-10-08T18:33:29.138Z,2.40
2017-10-08T18:35:59.130Z,2.80
2017-10-08T18:38:28.571Z,2.50
2017-10-08T18:41:04.626Z,2.63
2017-10-08T18:43:35.456Z,2.40
2017-10-08T18:46:05.602Z,2.73
2017-10-08T18:48:35.997Z,1.93
2017-10-08T18:51:04.137Z,2.77
2017-10-08T18:53:32.251Z,2.70
2017-10-08T18:56:02.782Z,3.50
2017-10-08T18:58:31.682Z,3.90
2017-10-08T19:01:01.477Z,3.93
2017-10-08T19:03:31.925Z,6.17
2017-10-08T19:06:00.114Z,8.73
2017-10-08T19:08:30.847Z,10.10
2017-10-08T19:11:01.163Z,10.90
2017-10-08T19:13:30.661Z,11.50
2017-10-08T19:16:00.079Z,12.13
2017-10-08T19:18:31.631Z,10.03
2017-10-08T19:21:01.126Z,6.60
2017-10-08T19:23:29.873Z,5.80
2017-10-08T19:25:58.473Z,5.80
2017-10-08T19:28:27.881Z,6.10
2017-10-08T19:30:56.046Z,7.00
2017-10-08T19:33:26.425Z,5.20
2017-10-08T19:35:55.368Z,6.00
2017-10-08T19:38:26.514Z,6.63
2017-10-08T19:40:56.452Z,6.60
2017-10-08T19:43:24.617Z,6.00
2017-10-08T19:45:53.505Z,6.17
2017-10-08T19:48:21.716Z,5.40
2017-10-08T19:50:50.286Z,6.13
2017-10-08T19:53:19.346Z,6.33
2017-10-08T19:55:48.233Z,6.50
2017-10-08T19:58:20.681Z,6.10
2017-10-08T20:00:48.840Z,6.10
2017-10-08T20:03:16.984Z,5.70
2017-10-08T20:05:45.092Z,6.57
2017-10-08T20:08:13.287Z,5.73
2017-10-08T20:10:45.130Z,6.20
2017-10-08T20:13:13.244Z,6.00
2017-10-08T20:15:45.099Z,5.70
2017-10-08T20:18:18.009Z,5.90
2017-10-08T20:20:50.255Z,5.60
2017-10-08T20:23:20.286Z,4.73
2017-10-08T20:25:50.600Z,5.27
2017-10-08T20:28:22.573Z,5.50
2017-10-08T20:30:51.283Z,5.80
2017-10-08T20:33:20.644Z,4.30
2017-10-08T20:35:52.519Z,4.30
2017-10-08T20:38:21.118Z,4.03
2017-10-08T20:40:49.980Z,3.40
2017-10-08T20:43:18.854Z,5.00
2017-10-08T20:45:46.985Z,4.27
2017-10-08T20:48:18.791Z,4.50
2017-10-08T20:50:46.944Z,4.37
2017-10-08T20:53:17.234Z,3.73
2017-10-08T20:55:48.377Z,4.60
2017-10-08T20:58:16.491Z,4.23
2017-10-08T21:00:45.715Z,3.63
2017-10-08T21:03:14.498Z,4.20
2017-10-08T21:05:42.652Z,3.90
2017-10-08T21:08:15.373Z,4.07
2017-10-08T21:10:43.514Z,5.70
2017-10-08T21:13:13.651Z,4.20
2017-10-08T21:15:42.554Z,3.97
2017-10-08T21:18:11.465Z,4.07
2017-10-08T21:20:39.612Z,4.80
2017-10-08T21:23:08.975Z,3.73
2017-10-08T21:25:37.098Z,4.60
2017-10-08T21:28:05.225Z,4.10
2017-10-08T21:30:35.237Z,4.20
2017-10-08T21:33:03.446Z,4.53
2017-10-08T21:35:33.462Z,4.10
2017-10-08T21:38:04.665Z,4.43
2017-10-08T21:40:35.252Z,3.47
2017-10-08T21:43:04.139Z,2.83
2017-10-08T21:45:35.457Z,3.03
2017-10-08T21:48:05.381Z,4.30
2017-10-08T21:50:34.777Z,4.60
2017-10-08T21:53:03.782Z,4.33
2017-10-08T21:55:35.178Z,3.87
2017-10-08T21:58:06.473Z,5.13
2017-10-08T22:00:37.745Z,5.17
2017-10-08T22:03:07.646Z,5.13
2017-10-08T22:05:37.047Z,5.27
2017-10-08T22:08:08.054Z,6.20
2017-10-08T22:10:37.276Z,5.23
2017-10-08T22:13:06.900Z,5.43
2017-10-08T22:15:36.922Z,5.37
2017-10-08T22:18:05.863Z,5.10
2017-10-08T22:20:33.963Z,4.83
2017-10-08T22:23:02.113Z,6.50
2017-10-08T22:25:33.021Z,4.70
2017-10-08T22:28:04.318Z,4.30
2017-10-08T22:30:32.847Z,5.70
2017-10-08T22:33:01.842Z,5.80
2017-10-08T22:35:31.641Z,5.70
2017-10-08T22:37:59.772Z,5.17
2017-10-08T22:40:28.327Z,4.60
2017-10-08T22:42:56.972Z,5.20
2017-10-08T22:45:26.482Z,5.17
2017-10-08T22:47:55.417Z,4.60
2017-10-08T22:50:23.549Z,5.60
2017-10-08T22:52:52.814Z,4.77
2017-10-08T22:55:22.249Z,5.10
2017-10-08T22:57:52.164Z,5.93
2017-10-08T23:00:22.162Z,6.20
2017-10-08T23:02:50.716Z,5.37
2017-10-08T23:05:18.843Z,5.33
2017-10-08T23:07:48.302Z,6.07
2017-10-08T23:10:16.432Z,4.63
2017-10-08T23:12:44.991Z,5.27
2017-10-08T23:15:14.771Z,4.93
2017-10-08T23:17:43.010Z,4.70
2017-10-08T23:20:11.594Z,4.60
2017-10-08T23:22:40.564Z,4.73
2017-10-08T23:25:09.149Z,4.50
2017-10-08T23:27:39.951Z,5.27
2017-10-08T23:30:09.325Z,4.60
2017-10-08T23:32:38.791Z,5.00
2017-10-08T23:35:07.830Z,6.07
2017-10-08T23:37:38.918Z,8.60
2017-10-08T23:40:09.146Z,5.67
2017-10-08T23:42:38.596Z,4.80
2017-10-08T23:45:06.932Z,4.73
2017-10-08T23:47:38.545Z,5.40
2017-10-08T23:50:08.085Z,4.80
2017-10-08T23:52:38.274Z,5.53
2017-10-08T23:55:06.434Z,5.03
2017-10-08T23:57:34.581Z,4.40
